createdAt,value
2019-05-16T00:03:27.979Z,7.00
2019-05-16T00:07:35.497Z,8.20
2019-05-16T00:11:43.853Z,8.10
2019-05-16T00:15:52.120Z,7.97
2019-05-16T00:20:00.693Z,7.87
2019-05-16T00:24:08.664Z,7.23
2019-05-16T00:28:18.143Z,8.27
2019-05-16T00:32:28.170Z,8.50
2019-05-16T00:36:38.164Z,7.30
2019-05-16T00:40:45.862Z,7.57
2019-05-16T00:44:53.661Z,7.87
2019-05-16T00:49:01.925Z,7.23
2019-05-16T00:53:10.305Z,8.00
2019-05-16T00:57:18.915Z,8.10
2019-05-16T01:01:28.263Z,7.23
2019-05-16T01:05:38.748Z,7.63
2019-05-16T01:09:45.838Z,8.87
2019-05-16T01:13:54.311Z,7.77
2019-05-16T01:18:02.070Z,8.23
2019-05-16T01:22:09.911Z,8.53
2019-05-16T01:26:18.696Z,8.00
2019-05-16T01:30:28.667Z,8.83
2019-05-16T01:34:37.818Z,9.33
2019-05-16T01:38:48.099Z,9.80
2019-05-16T01:42:57.775Z,8.80
2019-05-16T01:47:05.357Z,9.53
2019-05-16T01:51:13.803Z,8.77
2019-05-16T01:55:21.484Z,9.43
2019-05-16T01:59:29.658Z,10.17
2019-05-16T02:03:38.737Z,10.90
2019-05-16T02:07:48.016Z,11.10
2019-05-16T02:11:58.761Z,10.37
2019-05-16T02:16:08.239Z,10.23
2019-05-16T02:20:17.972Z,11.23
2019-05-16T02:24:28.347Z,9.87
2019-05-16T02:28:40.107Z,10.73
2019-05-16T02:32:45.714Z,9.67
2019-05-16T02:37:11.995Z,8.83
2019-05-16T02:41:03.651Z,8.73
2019-05-16T02:45:13.502Z,8.53
2019-05-16T02:49:21.751Z,8.90
2019-05-16T02:53:31.004Z,8.63
2019-05-16T02:57:41.447Z,9.50
2019-05-16T03:01:52.113Z,11.20
2019-05-16T03:06:01.460Z,8.93
2019-05-16T03:10:11.204Z,9.37
2019-05-16T03:14:21.260Z,10.07
2019-05-16T03:18:31.246Z,9.50
2019-05-16T03:22:41.226Z,8.67
2019-05-16T03:26:51.441Z,9.83
2019-05-16T03:31:05.073Z,9.27
2019-05-16T03:35:14.959Z,9.00
2019-05-16T03:39:21.241Z,9.67
2019-05-16T03:43:31.010Z,10.13
2019-05-16T03:47:42.239Z,11.27
2019-05-16T03:51:50.575Z,12.40
2019-05-16T03:56:01.572Z,11.50
2019-05-16T04:00:11.374Z,11.63
2019-05-16T04:04:20.649Z,12.47
2019-05-16T04:08:30.685Z,11.73
2019-05-16T04:12:37.297Z,13.17
2019-05-16T04:16:45.502Z,13.80
2019-05-16T04:20:53.647Z,15.93
2019-05-16T04:25:02.254Z,14.87
2019-05-16T04:29:11.932Z,14.23
2019-05-16T04:33:21.906Z,14.23
2019-05-16T04:37:31.371Z,14.20
2019-05-16T04:41:40.916Z,16.43
2019-05-16T04:45:52.129Z,14.80
2019-05-16T04:50:01.681Z,16.17
2019-05-16T04:54:11.478Z,15.43
2019-05-16T04:58:22.556Z,15.97
2019-05-16T05:02:30.769Z,14.33
2019-05-16T05:06:40.385Z,14.07
2019-05-16T05:10:47.162Z,14.63
2019-05-16T05:14:55.226Z,14.60
2019-05-16T05:19:02.846Z,15.50
2019-05-16T05:23:11.059Z,14.43
2019-05-16T05:27:19.764Z,14.87
2019-05-16T05:31:34.414Z,14.87
2019-05-16T05:35:40.702Z,15.23
2019-05-16T05:39:47.536Z,16.00
2019-05-16T05:43:56.231Z,15.10
2019-05-16T05:48:04.488Z,13.43
2019-05-16T05:52:12.864Z,12.73
2019-05-16T05:56:21.053Z,14.63
2019-05-16T06:00:30.345Z,14.50
2019-05-16T06:04:39.592Z,13.77
2019-05-16T06:08:50.009Z,12.03
2019-05-16T06:12:57.061Z,10.30
2019-05-16T06:17:05.392Z,10.83
2019-05-16T06:21:13.797Z,10.57
2019-05-16T06:25:22.885Z,11.40
2019-05-16T06:29:31.365Z,9.40
2019-05-16T06:33:41.127Z,8.23
2019-05-16T06:37:49.943Z,8.27
2019-05-16T06:42:00.413Z,11.40
2019-05-16T06:46:07.966Z,9.37
2019-05-16T06:50:15.798Z,8.30
2019-05-16T06:54:24.091Z,8.07
2019-05-16T06:58:43.696Z,8.10
2019-05-16T07:02:41.222Z,7.67
2019-05-16T07:06:58.599Z,7.60
2019-05-16T07:11:00.033Z,7.57
2019-05-16T07:15:12.400Z,7.30
2019-05-16T07:19:20.768Z,7.87
2019-05-16T07:23:29.906Z,7.77
2019-05-16T07:27:40.114Z,7.00
2019-05-16T07:31:47.886Z,7.40
2019-05-16T07:35:56.230Z,9.00
2019-05-16T07:40:16.285Z,7.50
2019-05-16T07:44:14.219Z,10.60
2019-05-16T07:48:22.428Z,7.83
2019-05-16T07:52:35.858Z,7.93
2019-05-16T07:56:40.851Z,7.13
2019-05-16T08:00:58.298Z,7.10
2019-05-16T08:05:00.877Z,6.17
2019-05-16T08:09:12.470Z,6.97
2019-05-16T08:13:21.284Z,6.63
2019-05-16T08:17:31.373Z,7.10
2019-05-16T08:21:41.167Z,5.63
2019-05-16T08:25:50.769Z,5.73
2019-05-16T08:30:02.106Z,5.70
2019-05-16T08:34:11.674Z,5.27
2019-05-16T08:38:21.118Z,5.33
2019-05-16T08:42:27.683Z,4.57
2019-05-16T08:46:35.900Z,5.23
2019-05-16T08:50:50.315Z,4.70
2019-05-16T08:54:53.569Z,6.40
2019-05-16T08:59:03.460Z,5.23
2019-05-16T09:03:12.299Z,5.00
2019-05-16T09:07:22.734Z,5.63
2019-05-16T09:11:44.921Z,6.13
2019-05-16T09:15:41.721Z,6.33
2019-05-16T09:19:50.296Z,5.25
2019-05-16T09:23:58.217Z,5.35
2019-05-16T09:28:07.436Z,4.92
2019-05-16T09:32:27.023Z,4.50
2019-05-16T09:36:28.100Z,4.65
2019-05-16T09:40:38.700Z,3.45
2019-05-16T09:44:47.561Z,3.98
2019-05-16T09:49:13.065Z,3.80
2019-05-16T09:53:07.247Z,4.87
2019-05-16T09:57:17.446Z,4.12
2019-05-16T10:01:27.627Z,5.12
2019-05-16T10:05:37.215Z,3.30
2019-05-16T10:09:50.024Z,3.35
2019-05-16T10:13:56.164Z,3.33
2019-05-16T10:18:07.355Z,3.50
2019-05-16T10:22:17.052Z,3.45
2019-05-16T10:26:27.715Z,4.33
2019-05-16T10:30:34.875Z,4.97
2019-05-16T10:34:42.900Z,3.12
2019-05-16T10:38:51.032Z,2.83
2019-05-16T10:42:59.244Z,2.70
2019-05-16T10:47:07.709Z,3.35
2019-05-16T10:51:17.102Z,2.87
2019-05-16T10:55:27.634Z,2.90
2019-05-16T10:59:57.730Z,2.40
2019-05-16T11:03:44.322Z,2.60
2019-05-16T11:07:53.476Z,2.50
2019-05-16T11:12:01.270Z,2.90
2019-05-16T11:16:09.516Z,3.27
2019-05-16T11:20:20.579Z,4.28
2019-05-16T11:24:29.727Z,4.60
2019-05-16T11:28:37.259Z,4.10
2019-05-16T11:32:46.981Z,4.72
2019-05-16T11:36:57.010Z,3.98
2019-05-16T11:41:07.220Z,4.20
2019-05-16T11:45:16.537Z,3.80
2019-05-16T11:49:24.585Z,3.62
2019-05-16T11:53:32.259Z,3.30
2019-05-16T11:57:39.971Z,3.95
2019-05-16T12:01:48.005Z,3.45
2019-05-16T12:05:58.015Z,3.58
2019-05-16T12:10:07.619Z,3.22
2019-05-16T12:14:16.598Z,2.70
2019-05-16T12:18:26.582Z,3.10
2019-05-16T12:22:37.487Z,3.45
2019-05-16T12:26:44.240Z,2.77
2019-05-16T12:30:52.318Z,3.00
2019-05-16T12:35:00.233Z,3.30
2019-05-16T12:39:09.157Z,3.42
2019-05-16T12:43:18.204Z,3.15
2019-05-16T12:47:26.348Z,3.15
2019-05-16T12:51:36.927Z,2.98
2019-05-16T12:55:44.335Z,3.30
2019-05-16T12:59:52.751Z,3.60
2019-05-16T13:04:00.769Z,3.42
2019-05-16T13:08:08.421Z,3.37
2019-05-16T13:12:17.540Z,3.80
2019-05-16T13:16:28.080Z,3.35
2019-05-16T13:20:39.228Z,3.73
2019-05-16T13:24:47.925Z,3.57
2019-05-16T13:28:57.839Z,4.10
2019-05-16T13:33:07.001Z,4.33
2019-05-16T13:37:17.612Z,3.90
2019-05-16T13:41:26.838Z,4.07
2019-05-16T13:45:33.883Z,4.03
2019-05-16T13:49:41.818Z,3.70
2019-05-16T13:53:49.530Z,4.00
2019-05-16T13:57:57.654Z,4.20
2019-05-16T14:02:07.792Z,4.27
2019-05-16T14:06:18.051Z,4.60
2019-05-16T14:10:29.785Z,5.57
2019-05-16T14:14:41.908Z,5.60
2019-05-16T14:18:47.025Z,4.17
2019-05-16T14:22:57.166Z,4.90
2019-05-16T14:27:06.464Z,5.17
2019-05-16T14:31:14.310Z,5.00
2019-05-16T14:35:21.999Z,5.10
2019-05-16T14:39:29.881Z,5.73
2019-05-16T14:43:37.885Z,5.43
2019-05-16T14:47:47.586Z,5.70
2019-05-16T14:51:57.870Z,5.87
2019-05-16T14:56:07.029Z,5.60
2019-05-16T15:00:18.300Z,6.10
2019-05-16T15:04:29.824Z,6.60
2019-05-16T15:08:34.905Z,5.90
2019-05-16T15:12:42.890Z,5.93
2019-05-16T15:16:51.994Z,6.13
2019-05-16T15:20:59.662Z,5.73
2019-05-16T15:25:08.520Z,6.30
2019-05-16T15:29:17.592Z,6.13
2019-05-16T15:33:27.326Z,6.20
2019-05-16T15:37:37.274Z,6.17
2019-05-16T15:41:45.284Z,6.37
2019-05-16T15:45:53.504Z,6.13
2019-05-16T15:50:01.488Z,5.63
2019-05-16T15:54:09.376Z,6.53
2019-05-16T15:58:18.369Z,6.30
2019-05-16T16:02:27.181Z,6.23
2019-05-16T16:06:37.783Z,5.63
2019-05-16T16:10:47.786Z,6.57
2019-05-16T16:14:57.354Z,7.47
2019-05-16T16:19:06.554Z,6.17
2019-05-16T16:23:17.527Z,6.67
2019-05-16T16:27:24.057Z,7.40
2019-05-16T16:31:32.088Z,7.20
2019-05-16T16:35:39.572Z,7.10
2019-05-16T16:39:47.580Z,8.27
2019-05-16T16:43:57.093Z,9.13
2019-05-16T16:48:04.672Z,8.43
2019-05-16T16:52:12.673Z,19.87
2019-05-16T16:56:20.665Z,16.97
2019-05-16T17:00:28.627Z,13.10
2019-05-16T17:04:38.870Z,7.40
2019-05-16T17:08:47.455Z,8.23
2019-05-16T17:12:57.585Z,9.30
2019-05-16T17:17:07.089Z,7.87
2019-05-16T17:21:17.087Z,8.27
2019-05-16T17:25:26.912Z,11.77
2019-05-16T17:29:36.876Z,6.97
2019-05-16T17:33:45.207Z,7.17
2019-05-16T17:37:52.803Z,6.23
2019-05-16T17:42:01.624Z,6.53
2019-05-16T17:46:09.847Z,5.87
2019-05-16T17:50:18.674Z,6.80
2019-05-16T17:54:26.796Z,7.20
2019-05-16T17:58:35.223Z,6.93
2019-05-16T18:02:43.473Z,7.30
2019-05-16T18:06:51.501Z,9.00
2019-05-16T18:10:59.551Z,6.77
2019-05-16T18:15:08.503Z,6.83
2019-05-16T18:19:17.371Z,6.67
2019-05-16T18:23:27.484Z,6.30
2019-05-16T18:27:37.419Z,5.90
2019-05-16T18:31:47.124Z,6.03
2019-05-16T18:35:57.808Z,6.67
2019-05-16T18:40:07.266Z,7.60
2019-05-16T18:44:16.695Z,6.80
2019-05-16T18:48:27.015Z,7.00
2019-05-16T18:52:37.252Z,6.60
2019-05-16T18:56:43.967Z,6.47
2019-05-16T19:00:52.745Z,6.90
2019-05-16T19:05:00.891Z,7.87
2019-05-16T19:09:08.972Z,7.80
2019-05-16T19:13:17.219Z,6.67
2019-05-16T19:17:27.498Z,7.87
2019-05-16T19:21:36.839Z,8.00
2019-05-16T19:25:47.385Z,7.00
2019-05-16T19:29:56.823Z,8.20
2019-05-16T19:34:06.998Z,8.67
2019-05-16T19:38:16.916Z,8.50
2019-05-16T19:42:26.664Z,8.13
2019-05-16T19:46:35.461Z,8.87
2019-05-16T19:50:46.237Z,8.80
2019-05-16T19:54:53.627Z,8.20
2019-05-16T19:59:02.170Z,6.63
2019-05-16T20:03:12.931Z,7.60
2019-05-16T20:07:20.674Z,7.10
2019-05-16T20:11:28.656Z,6.60
2019-05-16T20:15:37.229Z,7.23
2019-05-16T20:19:46.971Z,7.30
2019-05-16T20:23:56.769Z,7.80
2019-05-16T20:28:08.578Z,7.30
2019-05-16T20:32:16.706Z,7.07
2019-05-16T20:36:26.316Z,7.53
2019-05-16T20:40:33.166Z,7.10
2019-05-16T20:44:41.588Z,6.67
2019-05-16T20:48:49.501Z,6.87
2019-05-16T20:52:59.109Z,6.90
2019-05-16T20:57:07.263Z,7.27
2019-05-16T21:01:17.297Z,6.97
2019-05-16T21:05:26.840Z,6.90
2019-05-16T21:09:36.894Z,6.60
2019-05-16T21:13:46.911Z,6.80
2019-05-16T21:17:56.747Z,6.77
2019-05-16T21:22:07.142Z,6.60
2019-05-16T21:26:14.877Z,7.23
2019-05-16T21:30:23.762Z,6.87
2019-05-16T21:34:31.827Z,7.33
2019-05-16T21:38:40.302Z,7.10
2019-05-16T21:42:48.144Z,6.97
2019-05-16T21:46:56.498Z,6.83
2019-05-16T21:51:07.842Z,7.17
2019-05-16T21:55:17.505Z,7.17
2019-05-16T21:59:28.497Z,6.97
2019-05-16T22:03:36.727Z,6.77
2019-05-16T22:07:47.169Z,7.37
2019-05-16T22:11:57.377Z,7.60
2019-05-16T22:16:08.070Z,7.47
2019-05-16T22:20:16.817Z,8.27
2019-05-16T22:24:26.501Z,8.10
2019-05-16T22:28:34.713Z,8.50
2019-05-16T22:32:47.029Z,7.90
2019-05-16T22:36:57.301Z,7.37
2019-05-16T22:41:06.985Z,9.33
2019-05-16T22:45:17.614Z,10.00
2019-05-16T22:49:27.513Z,9.07
2019-05-16T22:53:36.875Z,10.23
2019-05-16T22:57:47.268Z,10.17
2019-05-16T23:01:56.966Z,10.07
2019-05-16T23:06:07.573Z,10.43
2019-05-16T23:10:16.655Z,11.43
2019-05-16T23:14:26.392Z,11.93
2019-05-16T23:18:34.571Z,10.83
2019-05-16T23:22:42.073Z,9.50
2019-05-16T23:26:49.789Z,8.90
2019-05-16T23:30:57.982Z,8.63
2019-05-16T23:35:06.869Z,9.40
2019-05-16T23:39:14.666Z,9.33
2019-05-16T23:43:22.658Z,9.03
2019-05-16T23:47:30.238Z,8.87
2019-05-16T23:51:38.616Z,9.07
2019-05-16T23:55:47.218Z,8.90
2019-05-16T23:59:56.766Z,9.20
